sensor_id;sensor_type;location;lat;lon;timestamp;P1;durP1;ratioP1;P2;durP2;ratioP2
40981;SDS011;26708;50.304;19.028;2022-08-20T00:03:01;19.63;;;8.82;;
40981;SDS011;26708;50.304;19.028;2022-08-20T00:06:08;14.75;;;8.65;;
40981;SDS011;26708;50.304;19.028;2022-08-20T00:09:12;13.38;;;8.13;;
40981;SDS011;26708;50.304;19.028;2022-08-20T00:12:14;14.55;;;7.93;;
40981;SDS011;26708;50.304;19.028;2022-08-20T00:15:18;15.90;;;8.80;;
40981;SDS011;26708;50.304;19.028;2022-08-20T00:18:21;19.63;;;9.20;;
40981;SDS011;26708;50.304;19.028;2022-08-20T00:21:22;19.13;;;8.82;;
40981;SDS011;26708;50.304;19.028;2022-08-20T00:24:24;18.20;;;8.93;;
40981;SDS011;26708;50.304;19.028;2022-08-20T00:27:25;16.45;;;8.45;;
40981;SDS011;26708;50.304;19.028;2022-08-20T00:30:26;14.32;;;9.30;;
40981;SDS011;26708;50.304;19.028;2022-08-20T00:33:27;15.70;;;9.00;;
40981;SDS011;26708;50.304;19.028;2022-08-20T00:36:27;18.52;;;8.35;;
40981;SDS011;26708;50.304;19.028;2022-08-20T00:39:28;15.88;;;9.23;;
40981;SDS011;26708;50.304;19.028;2022-08-20T00:42:29;16.38;;;9.10;;
40981;SDS011;26708;50.304;19.028;2022-08-20T00:45:31;16.90;;;8.88;;
40981;SDS011;26708;50.304;19.028;2022-08-20T00:48:34;17.10;;;9.23;;
40981;SDS011;26708;50.304;19.028;2022-08-20T00:51:41;17.07;;;9.33;;
40981;SDS011;26708;50.304;19.028;2022-08-20T00:54:54;22.02;;;9.38;;
40981;SDS011;26708;50.304;19.028;2022-08-20T00:57:59;15.60;;;9.15;;
40981;SDS011;26708;50.304;19.028;2022-08-20T01:01:02;16.50;;;9.85;;
40981;SDS011;26708;50.304;19.028;2022-08-20T01:04:04;20.00;;;9.35;;
40981;SDS011;26708;50.304;19.028;2022-08-20T01:07:05;18.13;;;9.43;;
40981;SDS011;26708;50.304;19.028;2022-08-20T01:10:17;17.13;;;9.98;;
40981;SDS011;26708;50.304;19.028;2022-08-20T01:13:23;16.23;;;9.25;;
40981;SDS011;26708;50.304;19.028;2022-08-20T01:16:27;17.10;;;9.63;;
40981;SDS011;26708;50.304;19.028;2022-08-20T01:19:38;16.80;;;9.98;;
40981;SDS011;26708;50.304;19.028;2022-08-20T01:22:57;17.55;;;10.15;;
40981;SDS011;26708;50.304;19.028;2022-08-20T01:26:25;19.77;;;9.32;;
40981;SDS011;26708;50.304;19.028;2022-08-20T01:29:33;16.92;;;10.20;;
40981;SDS011;26708;50.304;19.028;2022-08-20T01:32:36;15.77;;;9.63;;
40981;SDS011;26708;50.304;19.028;2022-08-20T01:35:38;20.33;;;9.68;;
40981;SDS011;26708;50.304;19.028;2022-08-20T01:38:42;15.48;;;9.57;;
40981;SDS011;26708;50.304;19.028;2022-08-20T01:41:58;22.88;;;10.13;;
40981;SDS011;26708;50.304;19.028;2022-08-20T01:45:18;19.67;;;10.27;;
40981;SDS011;26708;50.304;19.028;2022-08-20T01:48:19;18.17;;;10.15;;
40981;SDS011;26708;50.304;19.028;2022-08-20T01:51:26;20.15;;;9.68;;
40981;SDS011;26708;50.304;19.028;2022-08-20T01:54:29;19.80;;;10.57;;
40981;SDS011;26708;50.304;19.028;2022-08-20T01:57:33;16.85;;;9.98;;
40981;SDS011;26708;50.304;19.028;2022-08-20T02:00:35;17.13;;;9.38;;
40981;SDS011;26708;50.304;19.028;2022-08-20T02:03:38;19.95;;;10.57;;
40981;SDS011;26708;50.304;19.028;2022-08-20T02:06:44;19.40;;;10.18;;
40981;SDS011;26708;50.304;19.028;2022-08-20T02:09:48;16.92;;;10.35;;
40981;SDS011;26708;50.304;19.028;2022-08-20T02:12:49;18.05;;;10.30;;
40981;SDS011;26708;50.304;19.028;2022-08-20T02:15:50;13.85;;;9.75;;
40981;SDS011;26708;50.304;19.028;2022-08-20T02:18:52;15.70;;;10.02;;
40981;SDS011;26708;50.304;19.028;2022-08-20T02:21:58;15.07;;;9.27;;
40981;SDS011;26708;50.304;19.028;2022-08-20T02:25:05;16.52;;;10.55;;
40981;SDS011;26708;50.304;19.028;2022-08-20T02:28:11;22.10;;;11.13;;
40981;SDS011;26708;50.304;19.028;2022-08-20T02:31:16;19.75;;;11.40;;
40981;SDS011;26708;50.304;19.028;2022-08-20T02:37:19;19.58;;;10.60;;
40981;SDS011;26708;50.304;19.028;2022-08-20T02:40:22;16.80;;;10.32;;
40981;SDS011;26708;50.304;19.028;2022-08-20T02:43:27;17.00;;;10.95;;
40981;SDS011;26708;50.304;19.028;2022-08-20T02:46:28;20.55;;;11.45;;
40981;SDS011;26708;50.304;19.028;2022-08-20T02:49:29;17.48;;;12.35;;
40981;SDS011;26708;50.304;19.028;2022-08-20T02:52:31;18.48;;;11.23;;
40981;SDS011;26708;50.304;19.028;2022-08-20T02:55:32;19.25;;;11.35;;
40981;SDS011;26708;50.304;19.028;2022-08-20T02:58:32;21.33;;;11.70;;
40981;SDS011;26708;50.304;19.028;2022-08-20T03:01:34;17.58;;;11.50;;
40981;SDS011;26708;50.304;19.028;2022-08-20T03:04:35;24.15;;;12.00;;
40981;SDS011;26708;50.304;19.028;2022-08-20T03:07:41;19.90;;;11.52;;
40981;SDS011;26708;50.304;19.028;2022-08-20T03:10:47;20.52;;;11.57;;
40981;SDS011;26708;50.304;19.028;2022-08-20T03:13:49;20.60;;;11.93;;
40981;SDS011;26708;50.304;19.028;2022-08-20T03:16:49;22.00;;;11.15;;
40981;SDS011;26708;50.304;19.028;2022-08-20T03:19:50;25.52;;;11.55;;
40981;SDS011;26708;50.304;19.028;2022-08-20T03:22:52;21.20;;;10.90;;
40981;SDS011;26708;50.304;19.028;2022-08-20T03:25:56;20.65;;;11.38;;
40981;SDS011;26708;50.304;19.028;2022-08-20T03:28:58;24.87;;;11.07;;
40981;SDS011;26708;50.304;19.028;2022-08-20T03:31:59;17.08;;;10.63;;
40981;SDS011;26708;50.304;19.028;2022-08-20T03:35:04;19.85;;;11.57;;
40981;SDS011;26708;50.304;19.028;2022-08-20T03:38:07;20.10;;;11.48;;
40981;SDS011;26708;50.304;19.028;2022-08-20T03:41:10;22.63;;;11.18;;
40981;SDS011;26708;50.304;19.028;2022-08-20T03:44:11;23.90;;;11.55;;
40981;SDS011;26708;50.304;19.028;2022-08-20T03:47:12;19.17;;;11.15;;
40981;SDS011;26708;50.304;19.028;2022-08-20T03:50:13;24.17;;;10.90;;
40981;SDS011;26708;50.304;19.028;2022-08-20T03:53:15;16.58;;;11.18;;
40981;SDS011;26708;50.304;19.028;2022-08-20T03:56:16;27.17;;;11.20;;
40981;SDS011;26708;50.304;19.028;2022-08-20T03:59:17;17.83;;;10.45;;
40981;SDS011;26708;50.304;19.028;2022-08-20T04:02:18;19.73;;;10.48;;
40981;SDS011;26708;50.304;19.028;2022-08-20T04:05:20;18.58;;;10.32;;
40981;SDS011;26708;50.304;19.028;2022-08-20T04:08:23;23.95;;;11.10;;
40981;SDS011;26708;50.304;19.028;2022-08-20T04:11:26;21.83;;;11.20;;
40981;SDS011;26708;50.304;19.028;2022-08-20T04:14:27;22.20;;;11.38;;
40981;SDS011;26708;50.304;19.028;2022-08-20T04:17:28;27.35;;;10.70;;
40981;SDS011;26708;50.304;19.028;2022-08-20T04:20:31;18.20;;;10.77;;
40981;SDS011;26708;50.304;19.028;2022-08-20T04:23:31;22.40;;;10.98;;
40981;SDS011;26708;50.304;19.028;2022-08-20T04:26:32;20.77;;;11.45;;
40981;SDS011;26708;50.304;19.028;2022-08-20T04:29:35;24.30;;;12.10;;
40981;SDS011;26708;50.304;19.028;2022-08-20T04:32:42;22.98;;;11.80;;
40981;SDS011;26708;50.304;19.028;2022-08-20T04:35:43;18.42;;;11.38;;
40981;SDS011;26708;50.304;19.028;2022-08-20T04:38:43;20.13;;;10.70;;
40981;SDS011;26708;50.304;19.028;2022-08-20T04:41:44;20.75;;;11.27;;
40981;SDS011;26708;50.304;19.028;2022-08-20T04:44:45;28.15;;;11.98;;
40981;SDS011;26708;50.304;19.028;2022-08-20T04:47:46;26.48;;;11.57;;
40981;SDS011;26708;50.304;19.028;2022-08-20T04:50:56;23.33;;;11.82;;
40981;SDS011;26708;50.304;19.028;2022-08-20T04:53:58;23.88;;;11.27;;
40981;SDS011;26708;50.304;19.028;2022-08-20T04:56:59;20.50;;;11.02;;
40981;SDS011;26708;50.304;19.028;2022-08-20T05:00:05;20.57;;;10.73;;
40981;SDS011;26708;50.304;19.028;2022-08-20T05:03:24;23.60;;;10.38;;
40981;SDS011;26708;50.304;19.028;2022-08-20T05:06:27;23.27;;;11.50;;
40981;SDS011;26708;50.304;19.028;2022-08-20T05:09:29;27.02;;;11.77;;
40981;SDS011;26708;50.304;19.028;2022-08-20T05:12:32;23.25;;;11.35;;
40981;SDS011;26708;50.304;19.028;2022-08-20T05:15:33;21.10;;;11.27;;
40981;SDS011;26708;50.304;19.028;2022-08-20T05:18:35;18.75;;;11.48;;
40981;SDS011;26708;50.304;19.028;2022-08-20T05:21:36;22.70;;;11.65;;
40981;SDS011;26708;50.304;19.028;2022-08-20T05:24:37;22.95;;;11.80;;
40981;SDS011;26708;50.304;19.028;2022-08-20T05:27:39;21.08;;;11.40;;
40981;SDS011;26708;50.304;19.028;2022-08-20T05:30:42;19.10;;;10.80;;
40981;SDS011;26708;50.304;19.028;2022-08-20T05:33:44;17.85;;;10.40;;
40981;SDS011;26708;50.304;19.028;2022-08-20T05:36:46;22.52;;;10.43;;
40981;SDS011;26708;50.304;19.028;2022-08-20T05:39:49;19.33;;;10.40;;
40981;SDS011;26708;50.304;19.028;2022-08-20T05:42:50;23.73;;;10.30;;
40981;SDS011;26708;50.304;19.028;2022-08-20T05:45:53;21.50;;;10.65;;
40981;SDS011;26708;50.304;19.028;2022-08-20T05:48:53;19.05;;;10.02;;
40981;SDS011;26708;50.304;19.028;2022-08-20T05:51:54;20.98;;;10.88;;
40981;SDS011;26708;50.304;19.028;2022-08-20T05:54:55;18.27;;;10.05;;
40981;SDS011;26708;50.304;19.028;2022-08-20T05:57:59;20.92;;;10.40;;
40981;SDS011;26708;50.304;19.028;2022-08-20T06:01:01;22.23;;;10.55;;
40981;SDS011;26708;50.304;19.028;2022-08-20T06:04:03;18.67;;;10.25;;
40981;SDS011;26708;50.304;19.028;2022-08-20T06:07:23;20.83;;;10.40;;
40981;SDS011;26708;50.304;19.028;2022-08-20T06:10:24;25.42;;;11.05;;
40981;SDS011;26708;50.304;19.028;2022-08-20T06:13:25;20.33;;;13.10;;
40981;SDS011;26708;50.304;19.028;2022-08-20T06:16:27;21.63;;;10.65;;
40981;SDS011;26708;50.304;19.028;2022-08-20T06:19:27;21.65;;;11.40;;
40981;SDS011;26708;50.304;19.028;2022-08-20T06:22:28;19.65;;;11.27;;
40981;SDS011;26708;50.304;19.028;2022-08-20T06:25:29;18.00;;;10.80;;
40981;SDS011;26708;50.304;19.028;2022-08-20T06:28:30;20.75;;;10.35;;
40981;SDS011;26708;50.304;19.028;2022-08-20T06:31:32;18.00;;;10.18;;
40981;SDS011;26708;50.304;19.028;2022-08-20T06:34:34;20.85;;;11.07;;
40981;SDS011;26708;50.304;19.028;2022-08-20T06:37:36;17.42;;;10.48;;
40981;SDS011;26708;50.304;19.028;2022-08-20T06:40:39;29.42;;;12.30;;
40981;SDS011;26708;50.304;19.028;2022-08-20T06:43:40;25.02;;;12.85;;
40981;SDS011;26708;50.304;19.028;2022-08-20T06:46:48;18.80;;;11.65;;
40981;SDS011;26708;50.304;19.028;2022-08-20T06:49:49;19.00;;;11.50;;
40981;SDS011;26708;50.304;19.028;2022-08-20T06:52:50;21.73;;;11.00;;
40981;SDS011;26708;50.304;19.028;2022-08-20T06:55:52;22.52;;;11.52;;
40981;SDS011;26708;50.304;19.028;2022-08-20T06:58:54;21.38;;;11.48;;
40981;SDS011;26708;50.304;19.028;2022-08-20T07:01:55;20.92;;;11.88;;
40981;SDS011;26708;50.304;19.028;2022-08-20T07:04:56;20.15;;;10.68;;
40981;SDS011;26708;50.304;19.028;2022-08-20T07:07:56;20.40;;;11.02;;
40981;SDS011;26708;50.304;19.028;2022-08-20T07:10:58;21.80;;;10.98;;
40981;SDS011;26708;50.304;19.028;2022-08-20T07:13:58;21.27;;;12.05;;
40981;SDS011;26708;50.304;19.028;2022-08-20T07:17:04;23.30;;;11.80;;
40981;SDS011;26708;50.304;19.028;2022-08-20T07:20:11;23.20;;;10.95;;
40981;SDS011;26708;50.304;19.028;2022-08-20T07:23:13;23.05;;;11.65;;
40981;SDS011;26708;50.304;19.028;2022-08-20T07:26:14;19.95;;;11.73;;
40981;SDS011;26708;50.304;19.028;2022-08-20T07:29:15;19.85;;;10.82;;
40981;SDS011;26708;50.304;19.028;2022-08-20T07:32:16;21.25;;;11.25;;
40981;SDS011;26708;50.304;19.028;2022-08-20T07:35:36;16.05;;;10.40;;
40981;SDS011;26708;50.304;19.028;2022-08-20T07:38:37;19.85;;;9.70;;
40981;SDS011;26708;50.304;19.028;2022-08-20T07:41:37;17.17;;;8.80;;
40981;SDS011;26708;50.304;19.028;2022-08-20T07:44:38;20.20;;;9.32;;
40981;SDS011;26708;50.304;19.028;2022-08-20T07:47:40;14.55;;;8.70;;
40981;SDS011;26708;50.304;19.028;2022-08-20T07:50:42;17.38;;;8.73;;
40981;SDS011;26708;50.304;19.028;2022-08-20T07:53:43;16.85;;;8.43;;
40981;SDS011;26708;50.304;19.028;2022-08-20T07:56:46;14.75;;;8.40;;
40981;SDS011;26708;50.304;19.028;2022-08-20T07:59:47;16.92;;;8.27;;
40981;SDS011;26708;50.304;19.028;2022-08-20T08:02:48;15.88;;;8.15;;
40981;SDS011;26708;50.304;19.028;2022-08-20T08:05:49;22.17;;;9.32;;
40981;SDS011;26708;50.304;19.028;2022-08-20T08:08:53;20.20;;;9.43;;
40981;SDS011;26708;50.304;19.028;2022-08-20T08:11:55;22.13;;;9.13;;
40981;SDS011;26708;50.304;19.028;2022-08-20T08:14:57;13.82;;;8.50;;
40981;SDS011;26708;50.304;19.028;2022-08-20T08:17:59;12.80;;;8.07;;
40981;SDS011;26708;50.304;19.028;2022-08-20T08:21:06;21.45;;;9.98;;
40981;SDS011;26708;50.304;19.028;2022-08-20T08:24:07;18.85;;;9.82;;
40981;SDS011;26708;50.304;19.028;2022-08-20T08:27:10;23.70;;;11.40;;
40981;SDS011;26708;50.304;19.028;2022-08-20T08:30:11;22.30;;;11.77;;
40981;SDS011;26708;50.304;19.028;2022-08-20T08:33:20;21.58;;;11.85;;
40981;SDS011;26708;50.304;19.028;2022-08-20T08:36:28;17.95;;;10.70;;
40981;SDS011;26708;50.304;19.028;2022-08-20T08:39:30;22.50;;;10.85;;
40981;SDS011;26708;50.304;19.028;2022-08-20T08:42:38;18.00;;;10.23;;
40981;SDS011;26708;50.304;19.028;2022-08-20T08:45:44;19.35;;;11.75;;
40981;SDS011;26708;50.304;19.028;2022-08-20T08:52:02;14.73;;;8.93;;
40981;SDS011;26708;50.304;19.028;2022-08-20T08:55:09;15.77;;;9.23;;
40981;SDS011;26708;50.304;19.028;2022-08-20T08:58:21;18.98;;;9.82;;
40981;SDS011;26708;50.304;19.028;2022-08-20T09:01:22;21.00;;;10.45;;
40981;SDS011;26708;50.304;19.028;2022-08-20T09:04:33;23.63;;;10.30;;
40981;SDS011;26708;50.304;19.028;2022-08-20T09:07:36;17.98;;;10.50;;
40981;SDS011;26708;50.304;19.028;2022-08-20T09:10:37;22.38;;;11.40;;
40981;SDS011;26708;50.304;19.028;2022-08-20T09:13:38;20.20;;;10.90;;
40981;SDS011;26708;50.304;19.028;2022-08-20T09:16:39;29.55;;;12.40;;
40981;SDS011;26708;50.304;19.028;2022-08-20T09:19:40;24.45;;;10.77;;
40981;SDS011;26708;50.304;19.028;2022-08-20T09:22:42;21.15;;;10.40;;
40981;SDS011;26708;50.304;19.028;2022-08-20T09:25:43;21.33;;;11.38;;
40981;SDS011;26708;50.304;19.028;2022-08-20T09:28:44;20.58;;;9.55;;
40981;SDS011;26708;50.304;19.028;2022-08-20T09:31:44;21.05;;;9.65;;
40981;SDS011;26708;50.304;19.028;2022-08-20T09:34:46;23.55;;;11.07;;
40981;SDS011;26708;50.304;19.028;2022-08-20T09:37:51;17.80;;;9.63;;
40981;SDS011;26708;50.304;19.028;2022-08-20T09:40:52;17.77;;;8.57;;
40981;SDS011;26708;50.304;19.028;2022-08-20T09:43:53;15.27;;;7.20;;
40981;SDS011;26708;50.304;19.028;2022-08-20T09:46:54;16.80;;;7.65;;
40981;SDS011;26708;50.304;19.028;2022-08-20T09:49:54;15.60;;;7.07;;
40981;SDS011;26708;50.304;19.028;2022-08-20T09:52:56;23.42;;;8.90;;
40981;SDS011;26708;50.304;19.028;2022-08-20T09:55:59;18.25;;;7.50;;
40981;SDS011;26708;50.304;19.028;2022-08-20T09:59:00;18.38;;;7.10;;
40981;SDS011;26708;50.304;19.028;2022-08-20T10:02:01;15.35;;;7.32;;
40981;SDS011;26708;50.304;19.028;2022-08-20T10:05:03;19.45;;;7.50;;
40981;SDS011;26708;50.304;19.028;2022-08-20T10:08:05;26.63;;;7.35;;
40981;SDS011;26708;50.304;19.028;2022-08-20T10:11:06;16.00;;;6.82;;
40981;SDS011;26708;50.304;19.028;2022-08-20T10:14:07;14.48;;;6.78;;
40981;SDS011;26708;50.304;19.028;2022-08-20T10:17:08;14.15;;;6.97;;
40981;SDS011;26708;50.304;19.028;2022-08-20T10:20:10;16.25;;;6.78;;
40981;SDS011;26708;50.304;19.028;2022-08-20T10:23:12;15.18;;;6.72;;
40981;SDS011;26708;50.304;19.028;2022-08-20T10:26:14;16.65;;;6.47;;
40981;SDS011;26708;50.304;19.028;2022-08-20T10:29:16;16.77;;;7.40;;
40981;SDS011;26708;50.304;19.028;2022-08-20T10:32:17;10.57;;;5.90;;
40981;SDS011;26708;50.304;19.028;2022-08-20T10:35:18;13.93;;;5.90;;
40981;SDS011;26708;50.304;19.028;2022-08-20T10:38:19;16.23;;;5.47;;
40981;SDS011;26708;50.304;19.028;2022-08-20T10:41:20;15.82;;;5.50;;
40981;SDS011;26708;50.304;19.028;2022-08-20T10:44:21;14.38;;;5.68;;
40981;SDS011;26708;50.304;19.028;2022-08-20T10:47:26;15.35;;;6.22;;
40981;SDS011;26708;50.304;19.028;2022-08-20T10:50:29;10.48;;;5.53;;
40981;SDS011;26708;50.304;19.028;2022-08-20T10:53:30;15.95;;;6.30;;
40981;SDS011;26708;50.304;19.028;2022-08-20T10:56:30;16.88;;;6.70;;
40981;SDS011;26708;50.304;19.028;2022-08-20T10:59:31;15.18;;;6.57;;
40981;SDS011;26708;50.304;19.028;2022-08-20T11:02:37;12.07;;;5.50;;
40981;SDS011;26708;50.304;19.028;2022-08-20T11:05:38;9.68;;;5.80;;
40981;SDS011;26708;50.304;19.028;2022-08-20T11:08:39;12.68;;;5.30;;
40981;SDS011;26708;50.304;19.028;2022-08-20T11:11:40;19.48;;;6.07;;
40981;SDS011;26708;50.304;19.028;2022-08-20T11:14:42;11.98;;;5.38;;
40981;SDS011;26708;50.304;19.028;2022-08-20T11:17:43;12.93;;;5.35;;
40981;SDS011;26708;50.304;19.028;2022-08-20T11:20:45;12.10;;;5.15;;
40981;SDS011;26708;50.304;19.028;2022-08-20T11:23:46;13.10;;;5.40;;
40981;SDS011;26708;50.304;19.028;2022-08-20T11:26:47;17.63;;;6.20;;
40981;SDS011;26708;50.304;19.028;2022-08-20T11:29:49;13.35;;;5.78;;
40981;SDS011;26708;50.304;19.028;2022-08-20T11:32:51;13.27;;;5.25;;
40981;SDS011;26708;50.304;19.028;2022-08-20T11:35:53;13.55;;;5.78;;
40981;SDS011;26708;50.304;19.028;2022-08-20T11:38:54;13.57;;;6.05;;
40981;SDS011;26708;50.304;19.028;2022-08-20T11:41:55;16.73;;;6.05;;
40981;SDS011;26708;50.304;19.028;2022-08-20T11:44:55;17.27;;;5.97;;
40981;SDS011;26708;50.304;19.028;2022-08-20T11:47:56;10.95;;;5.75;;
40981;SDS011;26708;50.304;19.028;2022-08-20T11:50:57;10.85;;;5.05;;
40981;SDS011;26708;50.304;19.028;2022-08-20T11:53:58;15.75;;;6.88;;
40981;SDS011;26708;50.304;19.028;2022-08-20T11:56:59;11.88;;;6.07;;
40981;SDS011;26708;50.304;19.028;2022-08-20T12:00:02;13.95;;;5.72;;
40981;SDS011;26708;50.304;19.028;2022-08-20T12:03:10;13.15;;;5.90;;
40981;SDS011;26708;50.304;19.028;2022-08-20T12:06:12;16.63;;;5.93;;
40981;SDS011;26708;50.304;19.028;2022-08-20T12:09:13;16.25;;;5.93;;
40981;SDS011;26708;50.304;19.028;2022-08-20T12:12:14;17.30;;;5.97;;
40981;SDS011;26708;50.304;19.028;2022-08-20T12:15:16;17.10;;;6.47;;
40981;SDS011;26708;50.304;19.028;2022-08-20T12:18:17;14.05;;;7.00;;
40981;SDS011;26708;50.304;19.028;2022-08-20T12:21:18;13.27;;;6.88;;
40981;SDS011;26708;50.304;19.028;2022-08-20T12:24:19;17.10;;;7.10;;
40981;SDS011;26708;50.304;19.028;2022-08-20T12:27:22;16.25;;;6.45;;
40981;SDS011;26708;50.304;19.028;2022-08-20T12:33:27;16.00;;;6.05;;
40981;SDS011;26708;50.304;19.028;2022-08-20T12:36:29;12.27;;;6.53;;
40981;SDS011;26708;50.304;19.028;2022-08-20T12:39:30;15.27;;;6.07;;
40981;SDS011;26708;50.304;19.028;2022-08-20T12:42:32;13.85;;;5.85;;
40981;SDS011;26708;50.304;19.028;2022-08-20T12:45:33;15.95;;;8.57;;
40981;SDS011;26708;50.304;19.028;2022-08-20T12:48:35;13.63;;;8.18;;
40981;SDS011;26708;50.304;19.028;2022-08-20T12:51:35;15.93;;;7.03;;
40981;SDS011;26708;50.304;19.028;2022-08-20T12:54:36;14.85;;;7.20;;
40981;SDS011;26708;50.304;19.028;2022-08-20T12:57:44;19.45;;;6.95;;
40981;SDS011;26708;50.304;19.028;2022-08-20T13:00:47;18.25;;;7.13;;
40981;SDS011;26708;50.304;19.028;2022-08-20T13:03:48;18.20;;;6.90;;
40981;SDS011;26708;50.304;19.028;2022-08-20T13:06:49;16.02;;;7.15;;
40981;SDS011;26708;50.304;19.028;2022-08-20T13:09:49;17.40;;;7.50;;
40981;SDS011;26708;50.304;19.028;2022-08-20T13:12:50;24.60;;;8.48;;
40981;SDS011;26708;50.304;19.028;2022-08-20T13:15:51;14.77;;;7.25;;
40981;SDS011;26708;50.304;19.028;2022-08-20T13:18:52;14.65;;;6.85;;
40981;SDS011;26708;50.304;19.028;2022-08-20T13:21:53;16.67;;;8.05;;
40981;SDS011;26708;50.304;19.028;2022-08-20T13:24:54;18.48;;;8.93;;
40981;SDS011;26708;50.304;19.028;2022-08-20T13:27:56;12.85;;;6.13;;
40981;SDS011;26708;50.304;19.028;2022-08-20T13:30:58;14.63;;;6.78;;
40981;SDS011;26708;50.304;19.028;2022-08-20T13:34:01;15.50;;;6.05;;
40981;SDS011;26708;50.304;19.028;2022-08-20T13:37:02;14.48;;;6.85;;
40981;SDS011;26708;50.304;19.028;2022-08-20T13:40:11;11.57;;;6.53;;
40981;SDS011;26708;50.304;19.028;2022-08-20T13:43:12;37.33;;;17.80;;
40981;SDS011;26708;50.304;19.028;2022-08-20T13:46:13;19.10;;;7.65;;
40981;SDS011;26708;50.304;19.028;2022-08-20T13:49:14;17.90;;;8.35;;
40981;SDS011;26708;50.304;19.028;2022-08-20T13:52:14;16.88;;;8.52;;
40981;SDS011;26708;50.304;19.028;2022-08-20T13:55:16;20.15;;;8.18;;
40981;SDS011;26708;50.304;19.028;2022-08-20T13:58:22;15.95;;;8.43;;
40981;SDS011;26708;50.304;19.028;2022-08-20T14:01:23;16.75;;;7.80;;
40981;SDS011;26708;50.304;19.028;2022-08-20T14:04:24;18.23;;;7.90;;
40981;SDS011;26708;50.304;19.028;2022-08-20T14:07:26;18.35;;;8.15;;
40981;SDS011;26708;50.304;19.028;2022-08-20T14:10:28;13.03;;;6.60;;
40981;SDS011;26708;50.304;19.028;2022-08-20T14:13:31;18.17;;;7.00;;
40981;SDS011;26708;50.304;19.028;2022-08-20T14:16:32;20.08;;;7.00;;
40981;SDS011;26708;50.304;19.028;2022-08-20T14:19:36;17.67;;;5.35;;
40981;SDS011;26708;50.304;19.028;2022-08-20T14:22:37;20.60;;;5.45;;
40981;SDS011;26708;50.304;19.028;2022-08-20T14:25:38;11.82;;;5.95;;
40981;SDS011;26708;50.304;19.028;2022-08-20T14:28:40;14.60;;;5.45;;
40981;SDS011;26708;50.304;19.028;2022-08-20T14:31:41;12.45;;;5.25;;
40981;SDS011;26708;50.304;19.028;2022-08-20T14:34:41;9.48;;;5.10;;
40981;SDS011;26708;50.304;19.028;2022-08-20T14:37:46;12.13;;;5.10;;
40981;SDS011;26708;50.304;19.028;2022-08-20T14:40:48;11.50;;;5.57;;
40981;SDS011;26708;50.304;19.028;2022-08-20T14:43:49;14.68;;;5.93;;
40981;SDS011;26708;50.304;19.028;2022-08-20T14:46:50;10.80;;;5.20;;
40981;SDS011;26708;50.304;19.028;2022-08-20T14:49:52;15.55;;;5.55;;
40981;SDS011;26708;50.304;19.028;2022-08-20T14:52:54;12.20;;;5.55;;
40981;SDS011;26708;50.304;19.028;2022-08-20T14:55:55;15.75;;;6.60;;
40981;SDS011;26708;50.304;19.028;2022-08-20T14:58:56;13.23;;;5.70;;
40981;SDS011;26708;50.304;19.028;2022-08-20T15:01:57;10.63;;;5.18;;
40981;SDS011;26708;50.304;19.028;2022-08-20T15:04:59;12.10;;;5.00;;
40981;SDS011;26708;50.304;19.028;2022-08-20T15:07:59;13.70;;;5.22;;
40981;SDS011;26708;50.304;19.028;2022-08-20T15:11:00;13.30;;;5.20;;
40981;SDS011;26708;50.304;19.028;2022-08-20T15:14:01;10.90;;;5.47;;
40981;SDS011;26708;50.304;19.028;2022-08-20T15:17:01;10.13;;;5.72;;
40981;SDS011;26708;50.304;19.028;2022-08-20T15:20:06;15.35;;;6.35;;
40981;SDS011;26708;50.304;19.028;2022-08-20T15:23:11;13.57;;;6.05;;
40981;SDS011;26708;50.304;19.028;2022-08-20T15:26:12;12.30;;;5.88;;
40981;SDS011;26708;50.304;19.028;2022-08-20T15:29:12;12.27;;;6.00;;
40981;SDS011;26708;50.304;19.028;2022-08-20T15:32:15;9.55;;;5.10;;
40981;SDS011;26708;50.304;19.028;2022-08-20T15:35:16;14.68;;;5.88;;
40981;SDS011;26708;50.304;19.028;2022-08-20T15:38:17;9.35;;;4.88;;
40981;SDS011;26708;50.304;19.028;2022-08-20T15:41:17;10.65;;;5.15;;
40981;SDS011;26708;50.304;19.028;2022-08-20T15:44:18;11.80;;;5.28;;
40981;SDS011;26708;50.304;19.028;2022-08-20T15:47:26;11.77;;;5.10;;
40981;SDS011;26708;50.304;19.028;2022-08-20T15:53:54;13.93;;;5.28;;
40981;SDS011;26708;50.304;19.028;2022-08-20T15:57:02;10.18;;;5.20;;
40981;SDS011;26708;50.304;19.028;2022-08-20T16:00:14;10.20;;;4.95;;
40981;SDS011;26708;50.304;19.028;2022-08-20T16:03:43;11.75;;;5.57;;
40981;SDS011;26708;50.304;19.028;2022-08-20T16:07:09;17.48;;;5.15;;
40981;SDS011;26708;50.304;19.028;2022-08-20T16:14:13;11.30;;;5.00;;
40981;SDS011;26708;50.304;19.028;2022-08-20T16:17:23;10.43;;;4.82;;
40981;SDS011;26708;50.304;19.028;2022-08-20T16:20:49;9.38;;;4.80;;
40981;SDS011;26708;50.304;19.028;2022-08-20T16:23:52;7.60;;;4.57;;
40981;SDS011;26708;50.304;19.028;2022-08-20T16:30:08;6.88;;;4.60;;
40981;SDS011;26708;50.304;19.028;2022-08-20T16:33:21;9.55;;;5.47;;
40981;SDS011;26708;50.304;19.028;2022-08-20T16:36:34;10.30;;;4.82;;
40981;SDS011;26708;50.304;19.028;2022-08-20T16:46:38;13.52;;;5.28;;
40981;SDS011;26708;50.304;19.028;2022-08-20T16:49:52;7.95;;;5.82;;
40981;SDS011;26708;50.304;19.028;2022-08-20T16:53:25;12.98;;;7.20;;
40981;SDS011;26708;50.304;19.028;2022-08-20T16:56:46;11.95;;;6.38;;
40981;SDS011;26708;50.304;19.028;2022-08-20T17:03:22;11.48;;;5.93;;
40981;SDS011;26708;50.304;19.028;2022-08-20T17:06:47;11.18;;;6.18;;
40981;SDS011;26708;50.304;19.028;2022-08-20T17:09:48;14.27;;;6.60;;
40981;SDS011;26708;50.304;19.028;2022-08-20T17:12:54;10.57;;;6.40;;
40981;SDS011;26708;50.304;19.028;2022-08-20T17:19:08;13.00;;;6.90;;
40981;SDS011;26708;50.304;19.028;2022-08-20T17:22:17;11.27;;;6.10;;
40981;SDS011;26708;50.304;19.028;2022-08-20T17:25:20;14.47;;;6.80;;
40981;SDS011;26708;50.304;19.028;2022-08-20T17:28:30;14.10;;;6.32;;
40981;SDS011;26708;50.304;19.028;2022-08-20T17:31:37;12.57;;;6.05;;
40981;SDS011;26708;50.304;19.028;2022-08-20T17:34:44;12.67;;;6.60;;
40981;SDS011;26708;50.304;19.028;2022-08-20T17:37:50;13.30;;;6.80;;
40981;SDS011;26708;50.304;19.028;2022-08-20T17:40:56;11.97;;;6.50;;
40981;SDS011;26708;50.304;19.028;2022-08-20T17:44:00;10.48;;;6.97;;
40981;SDS011;26708;50.304;19.028;2022-08-20T17:47:21;18.52;;;7.47;;
40981;SDS011;26708;50.304;19.028;2022-08-20T17:50:26;18.13;;;8.75;;
40981;SDS011;26708;50.304;19.028;2022-08-20T17:53:32;12.98;;;8.02;;
40981;SDS011;26708;50.304;19.028;2022-08-20T17:56:36;13.82;;;8.23;;
40981;SDS011;26708;50.304;19.028;2022-08-20T18:06:26;10.23;;;6.13;;
40981;SDS011;26708;50.304;19.028;2022-08-20T18:16:14;13.70;;;6.13;;
40981;SDS011;26708;50.304;19.028;2022-08-20T18:22:30;15.60;;;6.88;;
40981;SDS011;26708;50.304;19.028;2022-08-20T18:25:37;10.55;;;7.28;;
40981;SDS011;26708;50.304;19.028;2022-08-20T18:28:46;10.90;;;6.75;;
40981;SDS011;26708;50.304;19.028;2022-08-20T18:31:50;13.95;;;7.40;;
40981;SDS011;26708;50.304;19.028;2022-08-20T18:35:35;11.27;;;7.20;;
40981;SDS011;26708;50.304;19.028;2022-08-20T18:38:42;13.43;;;7.72;;